Onyx, California
Current Conditions -  °F | °C
As of 3:56 AM on Monday 24 Nov 2014 (Local Time) from KNID Reporting Station
Clear Clear  
Wind Chill: 29°   Ceiling: Unl
Heat Index: 33°   Visibility: 10mi
Dew Point: 16°   Wind: 5mph
Humidity: 50%   Direction: 220°SW
Pressure: 30.26"   Gusts: NA
Location:  35.69°N, 118.22°W
Report Text: KNID 241156Z AUTO 22004KT 10SM CLR 01/M09 A3026 RMK AO2 SLP252 T00061089 10056 20000 58002 $
Loading
Personal Weather Stations






























Interactive Weather Map New forecast layout! Learn more

10-Day Weather Forecast

Advertisements
Track Severe Weather on mobile